Dzalinda, Russia
Current Conditions -  °F | °C
As of 10:30 AM on Tuesday 23 Dec 2014 (Local Time) from UHBB Reporting Station
Clear Clear  
Wind Chill: -11°   Ceiling: Unl
Heat Index: -11°   Visibility: 6mi
Dew Point: -17°   Wind: 0mph
Humidity: 77%   Direction: NA
Pressure: 29.97"   Gusts: NA
Location:  53.47°N, 123.9°E
Report Text: UHBB 230130Z 00000MPS CAVOK M24/M27 Q1015 NOSIG RMK QFE744/099236410250
Loading
Personal Weather Stations






























Interactive Weather Map New forecast layout! Learn more

10-Day Weather Forecast

Advertisements
Track Severe Weather on mobile